»·PEaware :: N8674U L52-L88

N8674U :: L52-L88

FLIGHT INFORMATION

Flight Status: Arrived
Operator: Privately registered:
United States
More flights under this callsign
Pilot: Hyatt B. (30410)
Aircraft: PIPER PA-28 CHEROKEE ARCHER
(PA28)
More flights by this aircraft type
Origin: L52 Oceano Co
United States
Destination: L88 New Cuyama
United States
More flights between these airports :: More routes between these airports
Route: L52 WYNNR L88
File this flight plan on PilotEdge
Remarks:
Altitude:
(Current/Filed)
7,500ft
Speed:
(Current/Filed)
110kts
Departed: 14-Jul-20 07:41 AM
Arrived: 14-Jul-20 08:09 AM
Distance/Time
Traveled:
47nm/0:27
Distance/Time
To Go:
Arrived

Flight Plot

Page will automatically refresh every two minutes.


Map Options




Map Legend


Flown Route
Filed Route
Departure Airport
Arrival Airport
Navaid (VOR, NDB)
Fix

Horizontal Profiles

Position Reports

Time Latitude Longitude Heading Altitude Ground
Speed
14-Jul-20 07:34 35.103537 -120.624837 34 18ft 0kts
14-Jul-20 07:35 35.103537 -120.624837 34 18ft 0kts
14-Jul-20 07:36 35.103574 -120.625178 236 18ft 2kts
14-Jul-20 07:37 35.103497 -120.625298 224 18ft 0kts
14-Jul-20 07:38 35.103497 -120.625298 224 18ft 0kts
14-Jul-20 07:39 35.103497 -120.625298 224 18ft 0kts
14-Jul-20 07:40 35.102746 -120.624634 123 18ft 24kts
14-Jul-20 07:41 35.093110 -120.606875 106 385ft 73kts
14-Jul-20 07:42 35.105341 -120.582340 83 1119ft 104kts
14-Jul-20 07:42 35.107588 -120.554157 74 1883ft 100kts
14-Jul-20 07:44 35.114800 -120.514686 61 2796ft 104kts
14-Jul-20 07:45 35.121637 -120.479789 80 3461ft 109kts
14-Jul-20 07:45 35.128008 -120.450281 51 3990ft 109kts
14-Jul-20 07:47 35.132012 -120.408840 97 4602ft 113kts
14-Jul-20 07:47 35.129136 -120.379758 101 4983ft 114kts
14-Jul-20 07:48 35.124248 -120.344713 94 5457ft 112kts
14-Jul-20 07:49 35.125676 -120.308559 82 6070ft 106kts
14-Jul-20 07:50 35.127038 -120.272570 88 6603ft 106kts
14-Jul-20 07:51 35.125312 -120.236127 104 7022ft 112kts
14-Jul-20 07:52 35.114947 -120.197772 108 7062ft 125kts
14-Jul-20 07:53 35.105014 -120.157040 114 7069ft 124kts
14-Jul-20 07:54 35.089519 -120.118510 117 6933ft 122kts
14-Jul-20 07:55 35.072798 -120.082868 121 6935ft 120kts
14-Jul-20 07:56 35.062599 -120.043717 105 6891ft 122kts
14-Jul-20 07:57 35.052874 -120.004176 104 6856ft 122kts
14-Jul-20 07:58 35.036295 -119.967544 116 6672ft 128kts
14-Jul-20 07:59 35.021663 -119.928360 122 6126ft 127kts
14-Jul-20 08:00 35.004194 -119.890815 118 5488ft 126kts
14-Jul-20 08:01 34.989741 -119.851968 110 4934ft 122kts
14-Jul-20 08:02 34.978666 -119.812050 108 4232ft 122kts
14-Jul-20 08:03 34.968268 -119.773639 97 3676ft 118kts
14-Jul-20 08:04 34.957937 -119.736673 104 2935ft 116kts
14-Jul-20 08:05 34.948755 -119.709359 123 2595ft 74kts
14-Jul-20 08:06 34.938172 -119.687947 117 2485ft 75kts
14-Jul-20 08:07 34.939065 -119.683423 297 2186ft 68kts
14-Jul-20 08:08 34.942223 -119.690790 10 2155ft 0kts
14-Jul-20 08:09 34.942695 -119.690740 131 2155ft 0kts
14-Jul-20 08:10 34.942693 -119.690737 134 2155ft 0kts
14-Jul-20 08:11 34.942693 -119.690737 134 2155ft 0kts
14-Jul-20 08:12 34.942693 -119.690737 134 2155ft 0kts
14-Jul-20 08:13 34.942693 -119.690737 134 2155ft 0kts
14-Jul-20 08:14 34.942693 -119.690737 134 2155ft 0kts
14-Jul-20 08:15 34.942693 -119.690737 134 2155ft 0kts
14-Jul-20 08:16 34.942693 -119.690737 134 2155ft 0kts
14-Jul-20 08:17 34.942693 -119.690737 134 2155ft 0kts
14-Jul-20 08:18 34.942693 -119.690737 134 2155ft 0kts
14-Jul-20 08:19 34.942693 -119.690737 134 2155ft 0kts
14-Jul-20 08:20 34.942693 -119.690737 134 2155ft 0kts
14-Jul-20 08:21 34.942693 -119.690737 134 2155ft 0kts
14-Jul-20 08:22 34.942693 -119.690737 134 2155ft 0kts

Navigation Log

Ident Type
Flight plan parsing failed, navigation log unavailable